createdAt,value
2023-01-07T00:01:15.506Z,100234.13
2023-01-07T00:03:46.348Z,100227.28
2023-01-07T00:06:16.194Z,100224.38
2023-01-07T00:08:45.197Z,100228.41
2023-01-07T00:11:16.312Z,100228.84
2023-01-07T00:13:44.413Z,100221.09
2023-01-07T00:16:13.714Z,100227.44
2023-01-07T00:18:42.567Z,100224.16
2023-01-07T00:21:14.254Z,100223.34
2023-01-07T00:23:43.189Z,100220.81
2023-01-07T00:26:13.097Z,100221.63
2023-01-07T00:28:42.558Z,100217.03
2023-01-07T00:31:12.546Z,100216.16
2023-01-07T00:33:47.711Z,100211.94
2023-01-07T00:36:16.757Z,100218.13
2023-01-07T00:38:44.469Z,100205.88
2023-01-07T00:41:12.464Z,100208.38
2023-01-07T00:43:41.023Z,100204.44
2023-01-07T00:46:10.626Z,100189.19
2023-01-07T00:48:38.350Z,100199.59
2023-01-07T00:51:06.099Z,100197.63
2023-01-07T00:53:35.027Z,100194.72
2023-01-07T00:56:02.835Z,100193.22
2023-01-07T00:58:31.294Z,100192.00
2023-01-07T01:01:01.715Z,100182.38
2023-01-07T01:03:31.440Z,100180.22
2023-01-07T01:06:02.595Z,100184.25
2023-01-07T01:08:30.221Z,100185.50
2023-01-07T01:11:03.992Z,100178.78
2023-01-07T01:13:31.701Z,100178.09
2023-01-07T01:15:59.507Z,100180.50
2023-01-07T01:18:27.682Z,100181.41
2023-01-07T01:20:55.763Z,100185.09
2023-01-07T01:23:23.438Z,100177.66
2023-01-07T01:25:51.016Z,100174.06
2023-01-07T01:28:20.693Z,100183.44
2023-01-07T01:30:55.789Z,100178.16
2023-01-07T01:33:23.596Z,100177.81
2023-01-07T01:35:51.226Z,100174.19
2023-01-07T01:38:19.063Z,100179.25
2023-01-07T01:40:46.712Z,100182.25
2023-01-07T01:43:33.295Z,100175.56
2023-01-07T01:46:04.133Z,100183.94
2023-01-07T01:48:33.531Z,100174.03
2023-01-07T01:51:01.892Z,100169.91
2023-01-07T01:53:31.519Z,100168.41
2023-01-07T01:56:05.526Z,100168.56
2023-01-07T01:58:38.301Z,100168.75
2023-01-07T02:01:06.367Z,100158.44
2023-01-07T02:03:36.839Z,100158.91
2023-01-07T02:06:05.641Z,100151.38
2023-01-07T02:08:33.484Z,100157.44
2023-01-07T02:11:13.015Z,100158.84
2023-01-07T02:13:55.524Z,100155.72
2023-01-07T02:16:32.340Z,100147.41
2023-01-07T02:19:17.513Z,100140.28
2023-01-07T02:21:54.131Z,100138.50
2023-01-07T02:25:00.510Z,100140.75
2023-01-07T02:27:50.714Z,100137.09
2023-01-07T02:30:41.500Z,100133.66
2023-01-07T02:33:34.302Z,100129.88
2023-01-07T02:36:14.418Z,100128.44
2023-01-07T02:38:55.423Z,100116.31
2023-01-07T02:41:34.658Z,100121.81
2023-01-07T02:44:05.672Z,100115.75
2023-01-07T02:46:41.198Z,100119.25
2023-01-07T02:49:12.619Z,100114.28
2023-01-07T02:51:41.669Z,100109.97
2023-01-07T02:54:16.172Z,100108.63
2023-01-07T02:56:59.202Z,100110.91
2023-01-07T03:00:02.124Z,100096.88
2023-01-07T03:03:02.788Z,100100.03
2023-01-07T03:05:46.131Z,100090.16
2023-01-07T03:08:33.651Z,100091.66
2023-01-07T03:11:03.993Z,100086.47
2023-01-07T03:13:38.186Z,100093.91
2023-01-07T03:16:11.056Z,100089.69
2023-01-07T03:18:41.782Z,100088.06
2023-01-07T03:21:13.858Z,100084.06
2023-01-07T03:23:47.044Z,100081.75
2023-01-07T03:26:20.020Z,100071.44
2023-01-07T03:28:49.424Z,100070.00
2023-01-07T03:31:18.613Z,100071.13
2023-01-07T03:33:52.648Z,100067.16
2023-01-07T03:36:26.624Z,100072.72
2023-01-07T03:38:56.255Z,100070.06
2023-01-07T03:41:41.736Z,100069.28
2023-01-07T03:44:09.287Z,100075.53
2023-01-07T03:46:38.353Z,100065.25
2023-01-07T03:49:05.936Z,100062.81
2023-01-07T03:51:34.950Z,100065.09
2023-01-07T03:54:02.608Z,100057.53
2023-01-07T03:56:30.215Z,100060.75
2023-01-07T03:58:57.807Z,100058.78
2023-01-07T04:01:27.449Z,100052.31
2023-01-07T04:03:55.138Z,100050.81
2023-01-07T04:06:22.781Z,100054.28
2023-01-07T04:08:51.695Z,100048.75
2023-01-07T04:11:19.326Z,100049.81
2023-01-07T04:13:46.917Z,100042.44
2023-01-07T04:16:14.565Z,100041.97
2023-01-07T04:18:42.228Z,100036.34
2023-01-07T04:21:09.904Z,100036.34
2023-01-07T04:23:37.573Z,100033.41
2023-01-07T04:26:06.738Z,100032.69
2023-01-07T04:28:34.552Z,100026.22
2023-01-07T04:31:02.607Z,100015.63
2023-01-07T04:33:30.205Z,100021.41
2023-01-07T04:35:58.662Z,100015.06
2023-01-07T04:38:26.259Z,100014.06
2023-01-07T04:40:53.884Z,100013.78
2023-01-07T04:43:22.970Z,100012.22
2023-01-07T04:45:50.701Z,100007.50
2023-01-07T04:48:18.290Z,100005.69
2023-01-07T04:50:47.380Z,99997.66
2023-01-07T04:53:15.185Z,99997.69
2023-01-07T04:55:44.943Z,99994.38
2023-01-07T04:58:14.056Z,99998.34
2023-01-07T05:00:43.036Z,100000.25
2023-01-07T05:03:10.807Z,99994.94
2023-01-07T05:05:38.474Z,99996.91
2023-01-07T05:08:06.383Z,99990.16
2023-01-07T05:10:34.016Z,99990.59
2023-01-07T05:13:06.862Z,99990.97
2023-01-07T05:15:34.784Z,99985.53
2023-01-07T05:18:05.326Z,99983.28
2023-01-07T05:20:32.980Z,99977.16
2023-01-07T05:23:00.579Z,99971.41
2023-01-07T05:25:28.263Z,99970.06
2023-01-07T05:27:55.863Z,99971.00
2023-01-07T05:30:23.449Z,99968.69
2023-01-07T05:32:51.009Z,99971.53
2023-01-07T05:35:20.172Z,99961.56
2023-01-07T05:37:47.715Z,99966.38
2023-01-07T05:40:15.337Z,99956.81
2023-01-07T05:42:43.606Z,99954.81
2023-01-07T05:45:12.211Z,99952.19
2023-01-07T05:47:39.813Z,99947.44
2023-01-07T05:50:08.031Z,99942.16
2023-01-07T05:52:37.004Z,99947.28
2023-01-07T05:55:05.141Z,99942.97
2023-01-07T05:57:32.706Z,99943.63
2023-01-07T06:00:00.390Z,99934.03
2023-01-07T06:02:27.954Z,99943.59
2023-01-07T06:04:55.571Z,99939.31
2023-01-07T06:07:23.124Z,99941.47
2023-01-07T06:09:51.988Z,99935.72
2023-01-07T06:12:19.681Z,99931.75
2023-01-07T06:14:47.343Z,99938.03
2023-01-07T06:17:15.075Z,99935.56
2023-01-07T06:19:42.726Z,99931.06
2023-01-07T06:22:10.367Z,99925.00
2023-01-07T06:24:37.949Z,99927.44
2023-01-07T06:27:07.006Z,99921.66
2023-01-07T06:29:34.630Z,99915.56
2023-01-07T06:32:02.225Z,99922.84
2023-01-07T06:34:29.864Z,99915.72
2023-01-07T06:36:57.586Z,99917.88
2023-01-07T06:39:25.608Z,99917.72
2023-01-07T06:41:53.463Z,99912.59
2023-01-07T06:44:22.363Z,99904.19
2023-01-07T06:46:49.957Z,99905.00
2023-01-07T06:49:18.304Z,99903.50
2023-01-07T06:51:45.845Z,99904.78
2023-01-07T06:54:13.611Z,99900.63
2023-01-07T06:56:41.269Z,99890.00
2023-01-07T06:59:08.909Z,99891.38
2023-01-07T07:01:37.915Z,99888.75
2023-01-07T07:04:05.964Z,99891.06
2023-01-07T07:06:34.059Z,99889.91
2023-01-07T07:09:01.893Z,99889.25
2023-01-07T07:11:29.516Z,99890.41
2023-01-07T07:13:57.263Z,99882.78
2023-01-07T07:16:24.875Z,99883.44
2023-01-07T07:18:54.052Z,99883.13
2023-01-07T07:21:22.106Z,99883.31
2023-01-07T07:23:49.671Z,99876.13
2023-01-07T07:26:17.279Z,99872.53
2023-01-07T07:28:44.868Z,99868.41
2023-01-07T07:31:12.566Z,99863.28
2023-01-07T07:33:40.177Z,99873.53
2023-01-07T07:36:09.978Z,99862.75
2023-01-07T07:38:37.600Z,99872.88
2023-01-07T07:41:05.480Z,99863.94
2023-01-07T07:43:35.763Z,99865.09
2023-01-07T07:46:03.740Z,99857.50
2023-01-07T07:48:31.425Z,99857.00
2023-01-07T07:50:58.992Z,99849.75
2023-01-07T07:53:28.039Z,99841.47
2023-01-07T07:55:55.649Z,99844.13
2023-01-07T07:58:23.905Z,99850.09
2023-01-07T08:00:51.588Z,99848.09
2023-01-07T08:03:19.168Z,99843.09
2023-01-07T08:05:46.918Z,99842.31
2023-01-07T08:08:16.460Z,99842.13
2023-01-07T08:10:45.535Z,99840.50
2023-01-07T08:13:13.196Z,99834.19
2023-01-07T08:15:40.735Z,99827.25
2023-01-07T08:18:10.923Z,99826.91
2023-01-07T08:20:38.873Z,99832.53
2023-01-07T08:23:08.225Z,99835.53
2023-01-07T08:25:36.598Z,99820.50
2023-01-07T08:28:05.877Z,99827.22
2023-01-07T08:30:33.526Z,99819.47
2023-01-07T08:33:01.401Z,99824.63
2023-01-07T08:35:28.957Z,99815.69
2023-01-07T08:38:02.449Z,99820.28
2023-01-07T08:40:30.247Z,99819.97
2023-01-07T08:42:59.993Z,99824.63
2023-01-07T08:45:29.663Z,99813.38
2023-01-07T08:47:58.490Z,99814.00
2023-01-07T08:50:26.201Z,99814.69
2023-01-07T08:52:53.844Z,99815.34
2023-01-07T08:55:21.768Z,99800.31
2023-01-07T08:57:49.898Z,99801.81
2023-01-07T09:00:19.624Z,99795.53
2023-01-07T09:02:48.685Z,99783.09
2023-01-07T09:05:16.777Z,99782.94
2023-01-07T09:07:44.549Z,99781.63
2023-01-07T09:10:12.627Z,99779.13
2023-01-07T09:12:40.289Z,99782.28
2023-01-07T09:15:09.432Z,99778.16
2023-01-07T09:18:04.033Z,99779.44
2023-01-07T09:20:31.935Z,99766.22
2023-01-07T09:22:59.660Z,99773.84
2023-01-07T09:25:27.600Z,99773.16
2023-01-07T09:27:55.317Z,99767.03
2023-01-07T09:30:23.149Z,99768.91
2023-01-07T09:32:50.726Z,99768.53
2023-01-07T09:35:19.830Z,99760.91
2023-01-07T09:37:47.398Z,99758.41
2023-01-07T09:40:24.459Z,99760.00
2023-01-07T09:42:58.923Z,99758.75
2023-01-07T09:45:30.125Z,99754.91
2023-01-07T09:48:00.532Z,99755.59
2023-01-07T09:50:43.528Z,99755.47
2023-01-07T09:53:16.914Z,99755.66
2023-01-07T09:56:11.154Z,99751.69
2023-01-07T09:58:33.480Z,99758.63
2023-01-07T10:01:15.279Z,99754.19
2023-01-07T10:03:55.569Z,99751.22
2023-01-07T10:06:43.105Z,99747.19
2023-01-07T10:09:27.582Z,99731.38
2023-01-07T10:12:02.966Z,99721.09
2023-01-07T10:14:53.272Z,99714.91
2023-01-07T10:17:38.442Z,99722.72
2023-01-07T10:20:14.520Z,99726.03
2023-01-07T10:22:49.978Z,99725.53
2023-01-07T10:25:21.439Z,99722.59
2023-01-07T10:27:50.821Z,99714.81
2023-01-07T10:30:22.948Z,99718.63
2023-01-07T10:32:55.061Z,99705.72
2023-01-07T10:35:26.059Z,99707.19
2023-01-07T10:37:58.945Z,99693.63
2023-01-07T10:40:40.044Z,99689.81
2023-01-07T10:43:22.052Z,99683.69
2023-01-07T10:46:05.394Z,99681.72
2023-01-07T10:48:46.639Z,99673.47
2023-01-07T10:51:23.519Z,99674.56
2023-01-07T10:54:02.130Z,99669.28
2023-01-07T10:56:32.307Z,99663.31
2023-01-07T10:59:04.948Z,99668.50
2023-01-07T11:01:36.390Z,99657.72
2023-01-07T11:04:05.273Z,99652.75
2023-01-07T11:06:39.539Z,99657.06
2023-01-07T11:09:15.079Z,99649.63
2023-01-07T11:11:43.798Z,99649.94
2023-01-07T11:14:15.224Z,99643.63
2023-01-07T11:16:47.418Z,99645.34
2023-01-07T11:19:16.315Z,99640.28
2023-01-07T11:21:46.844Z,99635.63
2023-01-07T11:24:33.683Z,99629.44
2023-01-07T11:27:05.271Z,99625.16
2023-01-07T11:29:38.048Z,99616.19
2023-01-07T11:32:07.429Z,99617.94
2023-01-07T11:34:38.214Z,99605.97
2023-01-07T11:37:06.261Z,99608.31
2023-01-07T11:39:36.930Z,99611.53
2023-01-07T11:42:30.310Z,99598.16
2023-01-07T11:45:10.282Z,99594.31
2023-01-07T11:47:41.075Z,99594.72
2023-01-07T11:50:21.386Z,99587.69
2023-01-07T11:52:56.913Z,99578.56
2023-01-07T11:55:26.819Z,99571.31
2023-01-07T11:58:09.542Z,99571.94
2023-01-07T12:00:42.932Z,99569.63
2023-01-07T12:03:13.796Z,99567.75
2023-01-07T12:05:45.344Z,99564.03
2023-01-07T12:08:22.057Z,99556.34
2023-01-07T12:10:57.138Z,99547.94
2023-01-07T12:13:28.213Z,99554.97
2023-01-07T12:15:58.997Z,99541.91
2023-01-07T12:18:57.472Z,99530.78
2023-01-07T12:21:36.420Z,99529.91
2023-01-07T12:24:17.462Z,99522.50
2023-01-07T12:26:53.436Z,99526.03
2023-01-07T12:29:36.189Z,99514.50
2023-01-07T12:32:17.396Z,99511.59
2023-01-07T12:34:53.067Z,99508.25
2023-01-07T12:37:31.704Z,99502.09
2023-01-07T12:40:07.683Z,99496.09
2023-01-07T12:42:41.580Z,99491.47
2023-01-07T12:45:19.100Z,99492.94
2023-01-07T12:47:51.596Z,99478.13
2023-01-07T12:50:25.535Z,99476.66
2023-01-07T12:52:58.676Z,99476.13
2023-01-07T12:55:31.593Z,99470.84
2023-01-07T12:58:12.424Z,99466.53
2023-01-07T13:00:48.582Z,99464.50
2023-01-07T13:03:25.740Z,99464.88
2023-01-07T13:05:57.562Z,99465.97
2023-01-07T13:08:35.954Z,99463.97
2023-01-07T13:11:11.160Z,99463.22
2023-01-07T13:13:44.925Z,99459.03
2023-01-07T13:16:12.953Z,99452.19
2023-01-07T13:18:40.737Z,99451.88
2023-01-07T13:21:11.136Z,99446.16
2023-01-07T13:23:54.263Z,99451.09
2023-01-07T13:26:32.468Z,99453.03
2023-01-07T13:29:14.161Z,99450.53
2023-01-07T13:32:01.160Z,99449.97
2023-01-07T13:34:42.873Z,99445.34
2023-01-07T13:37:35.860Z,99442.84
2023-01-07T13:40:22.940Z,99439.28
2023-01-07T13:42:54.615Z,99440.56
2023-01-07T13:45:26.207Z,99440.75
2023-01-07T13:47:56.812Z,99429.66
2023-01-07T13:50:28.332Z,99438.38
2023-01-07T13:53:02.207Z,99432.47
2023-01-07T13:55:36.537Z,99420.00
2023-01-07T13:58:31.163Z,99423.22
2023-01-07T14:01:06.238Z,99413.59
2023-01-07T14:03:43.299Z,99407.25
2023-01-07T14:06:51.305Z,99410.81
2023-01-07T14:09:39.995Z,99410.13
2023-01-07T14:12:37.780Z,99407.25
2023-01-07T14:15:26.731Z,99396.09
2023-01-07T14:18:09.000Z,99400.00
2023-01-07T14:20:47.202Z,99398.53
2023-01-07T14:23:24.943Z,99401.09
2023-01-07T14:26:04.340Z,99403.66
2023-01-07T14:29:02.264Z,99402.28
2023-01-07T14:31:31.167Z,99395.81
2023-01-07T14:34:05.315Z,99395.13
2023-01-07T14:37:14.971Z,99398.97
2023-01-07T14:39:44.668Z,99398.97
2023-01-07T14:42:46.190Z,99379.72
2023-01-07T14:45:47.235Z,99388.34
2023-01-07T14:48:37.051Z,99384.63
2023-01-07T14:51:33.098Z,99374.03
2023-01-07T14:54:48.262Z,99372.38
2023-01-07T14:57:30.232Z,99374.38
2023-01-07T15:00:25.327Z,99387.38
2023-01-07T15:03:18.221Z,99374.69
2023-01-07T15:06:01.394Z,99374.97
2023-01-07T15:09:00.580Z,99382.44
2023-01-07T15:11:46.578Z,99378.69
2023-01-07T15:14:42.967Z,99387.09
2023-01-07T15:17:13.818Z,99385.44
2023-01-07T15:19:43.468Z,99382.53
2023-01-07T15:22:52.476Z,99382.44
2023-01-07T15:25:29.697Z,99385.25
2023-01-07T15:28:07.647Z,99385.69
2023-01-07T15:30:45.879Z,99387.72
2023-01-07T15:33:48.016Z,99370.63
2023-01-07T15:36:16.591Z,99386.41
2023-01-07T15:38:50.258Z,99382.66
2023-01-07T15:41:32.732Z,99377.53
2023-01-07T15:44:02.919Z,99369.97
2023-01-07T15:46:32.360Z,99377.34
2023-01-07T15:49:15.445Z,99372.06
2023-01-07T15:51:44.742Z,99363.75
2023-01-07T15:54:27.172Z,99355.59
2023-01-07T15:56:59.658Z,99364.00
2023-01-07T15:59:29.901Z,99356.63
2023-01-07T16:02:15.522Z,99362.25
2023-01-07T16:04:44.609Z,99366.81
2023-01-07T16:07:21.975Z,99363.81
2023-01-07T16:09:50.078Z,99368.31
2023-01-07T16:12:29.755Z,99357.41
2023-01-07T16:14:57.379Z,99353.47
2023-01-07T16:17:25.684Z,99357.84
2023-01-07T16:20:21.627Z,99348.34
2023-01-07T16:22:50.263Z,99348.00
2023-01-07T16:25:28.221Z,99342.72
2023-01-07T16:27:57.395Z,99345.28
2023-01-07T16:30:25.285Z,99346.66
2023-01-07T16:32:54.575Z,99342.72
2023-01-07T16:35:30.837Z,99337.91
2023-01-07T16:37:58.911Z,99332.50
2023-01-07T16:40:36.789Z,99328.53
2023-01-07T16:43:06.743Z,99323.25
2023-01-07T16:45:36.235Z,99321.81
2023-01-07T16:48:19.706Z,99317.50
2023-01-07T16:50:47.976Z,99311.56
2023-01-07T16:53:32.156Z,99316.34
2023-01-07T16:56:14.362Z,99314.72
2023-01-07T16:58:49.997Z,99318.81
2023-01-07T17:01:20.320Z,99311.44
2023-01-07T17:03:52.782Z,99321.47
2023-01-07T17:06:24.727Z,99318.19
2023-01-07T17:08:55.375Z,99313.25
2023-01-07T17:11:26.772Z,99314.22
2023-01-07T17:13:55.812Z,99309.28
2023-01-07T17:16:33.183Z,99302.38
2023-01-07T17:19:25.537Z,99293.47
2023-01-07T17:21:53.869Z,99292.47
2023-01-07T17:24:47.322Z,99298.56
2023-01-07T17:27:22.223Z,99292.97
2023-01-07T17:29:51.417Z,99293.47
2023-01-07T17:32:19.060Z,99295.94
2023-01-07T17:34:46.634Z,99294.78
2023-01-07T17:37:15.893Z,99290.16
2023-01-07T17:39:44.537Z,99287.72
2023-01-07T17:42:38.949Z,99285.88
2023-01-07T17:45:10.108Z,99286.03
2023-01-07T17:47:37.744Z,99281.94
2023-01-07T17:50:06.167Z,99271.53
2023-01-07T17:52:33.943Z,99275.34
2023-01-07T17:55:01.524Z,99277.97
2023-01-07T17:57:29.169Z,99278.78
2023-01-07T17:59:57.019Z,99279.28
2023-01-07T18:02:30.397Z,99285.53
2023-01-07T18:04:58.081Z,99287.97
2023-01-07T18:07:25.652Z,99289.13
2023-01-07T18:09:53.186Z,99293.50
2023-01-07T18:12:33.351Z,99287.59
2023-01-07T18:15:02.140Z,99293.19
2023-01-07T18:17:31.281Z,99298.63
2023-01-07T18:19:58.906Z,99296.78
2023-01-07T18:22:26.592Z,99287.44
2023-01-07T18:24:55.255Z,99290.19
2023-01-07T18:27:22.935Z,99277.84
2023-01-07T18:29:50.688Z,99268.81
2023-01-07T18:32:18.260Z,99263.22
2023-01-07T18:34:47.284Z,99266.34
2023-01-07T18:37:16.528Z,99267.97
2023-01-07T18:39:44.151Z,99263.56
2023-01-07T18:42:12.748Z,99261.88
2023-01-07T18:44:40.391Z,99265.50
2023-01-07T18:47:08.005Z,99258.59
2023-01-07T18:49:35.544Z,99256.66
2023-01-07T18:52:04.574Z,99252.22
2023-01-07T18:54:33.375Z,99247.41
2023-01-07T18:57:01.100Z,99245.63
2023-01-07T18:59:28.819Z,99238.72
2023-01-07T19:01:59.363Z,99241.19
2023-01-07T19:04:27.425Z,99233.81
2023-01-07T19:06:55.304Z,99235.72
2023-01-07T19:09:24.768Z,99238.31
2023-01-07T19:11:52.483Z,99230.94
2023-01-07T19:14:21.099Z,99233.41
2023-01-07T19:16:48.797Z,99230.31
2023-01-07T19:19:16.687Z,99229.34
2023-01-07T19:21:46.649Z,99233.13
2023-01-07T19:24:14.748Z,99222.94
2023-01-07T19:26:43.864Z,99224.34
2023-01-07T19:29:13.896Z,99216.00
2023-01-07T19:31:43.080Z,99220.59
2023-01-07T19:34:10.998Z,99215.69
2023-01-07T19:36:38.827Z,99216.19
2023-01-07T19:39:06.792Z,99219.50
2023-01-07T19:41:35.043Z,99214.19
2023-01-07T19:44:04.629Z,99208.59
2023-01-07T19:46:34.683Z,99204.69
2023-01-07T19:49:02.382Z,99198.63
2023-01-07T19:51:30.091Z,99191.22
2023-01-07T19:53:57.759Z,99188.16
2023-01-07T19:56:25.731Z,99183.13
2023-01-07T19:58:54.354Z,99185.66
2023-01-07T20:01:26.618Z,99180.34
2023-01-07T20:03:55.476Z,99172.56
2023-01-07T20:06:25.898Z,99182.22
2023-01-07T20:08:54.630Z,99191.94
2023-01-07T20:11:23.230Z,99187.38
2023-01-07T20:13:51.703Z,99189.03
2023-01-07T20:16:21.853Z,99189.19
2023-01-07T20:18:53.007Z,99197.28
2023-01-07T20:21:22.237Z,99206.81
2023-01-07T20:23:50.484Z,99201.91
2023-01-07T20:26:23.007Z,99201.41
2023-01-07T20:28:51.247Z,99208.00
2023-01-07T20:31:21.432Z,99204.72
2023-01-07T20:33:51.295Z,99208.06
2023-01-07T20:36:22.211Z,99211.00
2023-01-07T20:38:49.943Z,99205.94
2023-01-07T20:41:19.519Z,99206.28
2023-01-07T20:43:51.664Z,99199.34
2023-01-07T20:46:19.753Z,99204.41
2023-01-07T20:48:47.831Z,99197.75
2023-01-07T20:51:17.840Z,99191.47
2023-01-07T20:53:46.847Z,99199.16
2023-01-07T20:56:16.572Z,99188.13
2023-01-07T20:58:44.293Z,99187.13
2023-01-07T21:01:14.210Z,99186.88
2023-01-07T21:03:42.734Z,99193.31
2023-01-07T21:06:12.024Z,99193.28
2023-01-07T21:08:41.455Z,99196.72
2023-01-07T21:11:11.350Z,99189.38
2023-01-07T21:13:39.079Z,99194.47
2023-01-07T21:16:07.448Z,99193.81
2023-01-07T21:18:35.656Z,99192.19
2023-01-07T21:21:09.765Z,99205.13
2023-01-07T21:23:37.370Z,99206.34
2023-01-07T21:26:07.056Z,99186.56
2023-01-07T21:28:34.997Z,99194.25
2023-01-07T21:31:04.874Z,99182.34
2023-01-07T21:33:33.000Z,99181.91
2023-01-07T21:36:00.657Z,99185.41
2023-01-07T21:38:28.323Z,99183.94
2023-01-07T21:40:56.092Z,99189.69
2023-01-07T21:43:24.995Z,99187.84
2023-01-07T21:45:52.808Z,99184.69
2023-01-07T21:48:20.390Z,99176.50
2023-01-07T21:50:48.059Z,99173.34
2023-01-07T21:53:15.597Z,99165.47
2023-01-07T21:55:43.255Z,99173.59
2023-01-07T21:58:10.896Z,99175.59
2023-01-07T22:00:39.841Z,99181.91
2023-01-07T22:03:07.476Z,99164.41
2023-01-07T22:05:35.034Z,99167.31
2023-01-07T22:08:02.661Z,99174.78
2023-01-07T22:10:30.586Z,99163.44
2023-01-07T22:12:58.154Z,99169.00
2023-01-07T22:15:25.791Z,99172.03
2023-01-07T22:17:55.028Z,99181.72
2023-01-07T22:20:22.593Z,99176.78
2023-01-07T22:22:50.157Z,99178.25
2023-01-07T22:25:17.929Z,99179.44
2023-01-07T22:27:45.487Z,99185.47
2023-01-07T22:30:14.160Z,99177.00
2023-01-07T22:32:41.786Z,99174.88
2023-01-07T22:35:11.005Z,99183.88
2023-01-07T22:37:38.681Z,99181.22
2023-01-07T22:40:08.259Z,99180.56
2023-01-07T22:42:41.156Z,99173.44
2023-01-07T22:45:13.460Z,99179.75
2023-01-07T22:47:45.390Z,99177.91
2023-01-07T22:50:15.046Z,99175.72
2023-01-07T22:52:43.752Z,99164.69
2023-01-07T22:55:13.222Z,99166.75
2023-01-07T22:57:41.856Z,99165.50
2023-01-07T23:00:16.760Z,99158.38
2023-01-07T23:02:44.325Z,99162.38
2023-01-07T23:05:11.981Z,99155.56
2023-01-07T23:07:40.906Z,99163.84
2023-01-07T23:10:09.420Z,99168.25
2023-01-07T23:12:36.946Z,99161.69
2023-01-07T23:15:04.990Z,99151.94
2023-01-07T23:17:32.563Z,99149.53
2023-01-07T23:20:00.114Z,99138.94
2023-01-07T23:22:27.677Z,99137.69
2023-01-07T23:24:56.556Z,99131.56
2023-01-07T23:27:24.144Z,99117.69
2023-01-07T23:29:51.747Z,99103.06
2023-01-07T23:32:19.642Z,99104.53
2023-01-07T23:34:47.172Z,99094.31
2023-01-07T23:37:14.778Z,99096.41
2023-01-07T23:39:42.329Z,99086.25
2023-01-07T23:42:11.265Z,99076.31
2023-01-07T23:44:38.921Z,99079.16
2023-01-07T23:47:06.590Z,99073.03
2023-01-07T23:49:34.129Z,99072.75
2023-01-07T23:52:01.753Z,99076.13
2023-01-07T23:54:29.292Z,99070.28
2023-01-07T23:56:56.823Z,99059.88
2023-01-07T23:59:25.851Z,99061.31
